sensor_id;sensor_type;location;lat;lon;timestamp;pressure;altitude;pressure_sealevel;temperature;humidity
60489;BME280;46331;49.252;8.904;2024-03-23T00:54:08;98935.34;;;11.12;87.14
60489;BME280;46331;49.252;8.904;2024-03-23T00:54:49;98943.56;;;11.11;87.49
60489;BME280;46331;49.252;8.904;2024-03-23T00:55:29;98926.28;;;11.03;87.06
60489;BME280;46331;49.252;8.904;2024-03-23T00:56:10;98928.63;;;10.94;87.43
60489;BME280;46331;49.252;8.904;2024-03-23T00:56:51;98922.53;;;10.94;87.72
60489;BME280;46331;49.252;8.904;2024-03-23T00:57:31;98926.22;;;10.93;87.55
60489;BME280;46331;49.252;8.904;2024-03-23T00:58:12;98920.16;;;10.92;87.62
60489;BME280;46331;49.252;8.904;2024-03-23T00:58:52;98923.06;;;10.96;87.47
60489;BME280;46331;49.252;8.904;2024-03-23T00:59:33;98924.41;;;10.98;87.37
60489;BME280;46331;49.252;8.904;2024-03-23T01:00:13;98921.78;;;11.03;87.72
60489;BME280;46331;49.252;8.904;2024-03-23T01:00:54;98926.03;;;11.04;87.54
60489;BME280;46331;49.252;8.904;2024-03-23T01:01:35;98931.88;;;11.06;87.49
60489;BME280;46331;49.252;8.904;2024-03-23T01:02:15;98926.28;;;11.08;87.04
60489;BME280;46331;49.252;8.904;2024-03-23T01:02:56;98924.94;;;11.05;87.22
60489;BME280;46331;49.252;8.904;2024-03-23T01:03:36;98927.06;;;11.03;86.80
60489;BME280;46331;49.252;8.904;2024-03-23T01:04:17;98918.84;;;11.05;86.89
60489;BME280;46331;49.252;8.904;2024-03-23T01:04:57;98925.25;;;11.09;86.51
60489;BME280;46331;49.252;8.904;2024-03-23T01:05:38;98914.84;;;11.02;86.67
60489;BME280;46331;49.252;8.904;2024-03-23T01:06:18;98920.94;;;10.98;86.59
60489;BME280;46331;49.252;8.904;2024-03-23T01:06:59;98921.47;;;10.95;86.92
60489;BME280;46331;49.252;8.904;2024-03-23T01:07:39;98917.50;;;10.92;87.52
60489;BME280;46331;49.252;8.904;2024-03-23T01:08:20;98917.75;;;10.90;87.00
60489;BME280;46331;49.252;8.904;2024-03-23T01:09:00;98923.31;;;10.89;87.48
60489;BME280;46331;49.252;8.904;2024-03-23T01:09:41;98917.44;;;10.87;87.51
60489;BME280;46331;49.252;8.904;2024-03-23T01:10:21;98920.34;;;10.85;87.60
60489;BME280;46331;49.252;8.904;2024-03-23T01:11:02;98917.13;;;10.73;87.51
60489;BME280;46331;49.252;8.904;2024-03-23T01:11:43;98907.59;;;10.72;87.92
60489;BME280;46331;49.252;8.904;2024-03-23T01:12:23;98910.50;;;10.76;87.93
60489;BME280;46331;49.252;8.904;2024-03-23T01:13:04;98911.03;;;10.78;88.24
60489;BME280;46331;49.252;8.904;2024-03-23T01:13:44;98901.25;;;10.78;87.65
60489;BME280;46331;49.252;8.904;2024-03-23T01:14:25;98910.25;;;10.77;87.68
60489;BME280;46331;49.252;8.904;2024-03-23T01:15:06;98901.50;;;10.77;88.27
60489;BME280;46331;49.252;8.904;2024-03-23T01:15:49;98903.13;;;10.88;88.44
60489;BME280;46331;49.252;8.904;2024-03-23T01:16:29;98900.47;;;10.83;88.43
60489;BME280;46331;49.252;8.904;2024-03-23T01:17:10;98899.97;;;10.86;88.02
60489;BME280;46331;49.252;8.904;2024-03-23T01:17:50;98898.63;;;10.88;88.16
60489;BME280;46331;49.252;8.904;2024-03-23T01:18:31;98897.84;;;10.93;88.44
60489;BME280;46331;49.252;8.904;2024-03-23T01:19:13;98897.59;;;10.95;87.94
60489;BME280;46331;49.252;8.904;2024-03-23T01:19:53;98900.53;;;10.98;88.26
60489;BME280;46331;49.252;8.904;2024-03-23T01:20:34;98907.97;;;11.01;87.59
60489;BME280;46331;49.252;8.904;2024-03-23T01:21:14;98897.88;;;10.98;87.15
60489;BME280;46331;49.252;8.904;2024-03-23T01:21:55;98893.13;;;11.05;87.34
60489;BME280;46331;49.252;8.904;2024-03-23T01:22:35;98887.28;;;11.08;87.51
60489;BME280;46331;49.252;8.904;2024-03-23T01:23:16;98888.31;;;11.02;87.05
60489;BME280;46331;49.252;8.904;2024-03-23T01:23:56;98889.94;;;11.08;87.24
60489;BME280;46331;49.252;8.904;2024-03-23T01:24:37;98883.84;;;11.03;86.93
60489;BME280;46331;49.252;8.904;2024-03-23T01:25:18;98889.41;;;11.06;86.77
60489;BME280;46331;49.252;8.904;2024-03-23T01:25:58;98891.00;;;11.07;86.87
60489;BME280;46331;49.252;8.904;2024-03-23T01:26:38;98893.94;;;11.06;86.77
60489;BME280;46331;49.252;8.904;2024-03-23T01:27:20;98888.09;;;11.09;87.28
60489;BME280;46331;49.252;8.904;2024-03-23T01:28:01;98888.63;;;11.06;86.50
60489;BME280;46331;49.252;8.904;2024-03-23T01:28:41;98887.28;;;11.08;87.20
60489;BME280;46331;49.252;8.904;2024-03-23T01:29:22;98880.66;;;11.06;86.79
60489;BME280;46331;49.252;8.904;2024-03-23T01:30:02;98877.75;;;11.07;86.46
60489;BME280;46331;49.252;8.904;2024-03-23T01:30:43;98879.84;;;11.00;86.56
60489;BME280;46331;49.252;8.904;2024-03-23T01:31:24;98876.94;;;11.02;86.79
60489;BME280;46331;49.252;8.904;2024-03-23T01:32:05;98869.22;;;11.05;87.13
60489;BME280;46331;49.252;8.904;2024-03-23T01:32:45;98885.97;;;11.06;86.80
60489;BME280;46331;49.252;8.904;2024-03-23T01:33:27;98878.78;;;11.01;86.44
60489;BME280;46331;49.252;8.904;2024-03-23T01:34:07;98879.84;;;11.00;87.15
60489;BME280;46331;49.252;8.904;2024-03-23T01:34:48;98867.91;;;11.03;86.91
60489;BME280;46331;49.252;8.904;2024-03-23T01:35:29;98868.69;;;11.03;86.91
60489;BME280;46331;49.252;8.904;2024-03-23T01:36:09;98866.56;;;10.95;86.93
60489;BME280;46331;49.252;8.904;2024-03-23T01:36:50;98866.84;;;10.99;87.06
60489;BME280;46331;49.252;8.904;2024-03-23T01:37:31;98872.66;;;10.96;87.04
60489;BME280;46331;49.252;8.904;2024-03-23T01:38:11;98879.00;;;10.95;87.21
60489;BME280;46331;49.252;8.904;2024-03-23T01:38:52;98873.44;;;10.91;86.76
60489;BME280;46331;49.252;8.904;2024-03-23T01:39:32;98866.53;;;10.85;87.33
60489;BME280;46331;49.252;8.904;2024-03-23T01:40:13;98872.09;;;10.88;87.59
60489;BME280;46331;49.252;8.904;2024-03-23T01:40:57;98873.19;;;10.93;87.29
60489;BME280;46331;49.252;8.904;2024-03-23T01:41:38;98870.47;;;10.82;87.62
60489;BME280;46331;49.252;8.904;2024-03-23T01:42:22;98875.25;;;10.80;87.90
60489;BME280;46331;49.252;8.904;2024-03-23T01:43:04;98867.03;;;10.82;87.95
60489;BME280;46331;49.252;8.904;2024-03-23T01:43:45;98869.63;;;10.66;87.93
60489;BME280;46331;49.252;8.904;2024-03-23T01:44:26;98867.50;;;10.68;88.22
60489;BME280;46331;49.252;8.904;2024-03-23T01:45:08;98867.56;;;10.73;88.15
60489;BME280;46331;49.252;8.904;2024-03-23T01:45:50;98863.03;;;10.69;88.77
60489;BME280;46331;49.252;8.904;2024-03-23T01:46:34;98861.94;;;10.65;88.55
60489;BME280;46331;49.252;8.904;2024-03-23T01:47:14;98857.41;;;10.60;89.00
60489;BME280;46331;49.252;8.904;2024-03-23T01:47:55;98854.75;;;10.55;88.98
60489;BME280;46331;49.252;8.904;2024-03-23T01:48:35;98851.22;;;10.44;89.95
60489;BME280;46331;49.252;8.904;2024-03-23T01:49:16;98849.38;;;10.45;90.24
60489;BME280;46331;49.252;8.904;2024-03-23T01:49:57;98845.13;;;10.44;90.33
60489;BME280;46331;49.252;8.904;2024-03-23T01:50:38;98849.13;;;10.46;90.68
60489;BME280;46331;49.252;8.904;2024-03-23T01:51:19;98847.53;;;10.50;90.72
60489;BME280;46331;49.252;8.904;2024-03-23T01:51:59;98847.03;;;10.53;90.75
60489;BME280;46331;49.252;8.904;2024-03-23T01:52:40;98844.41;;;10.59;90.70
60489;BME280;46331;49.252;8.904;2024-03-23T01:53:21;98848.41;;;10.61;90.52
60489;BME280;46331;49.252;8.904;2024-03-23T01:54:04;98846.84;;;10.76;89.77
60489;BME280;46331;49.252;8.904;2024-03-23T01:54:44;98843.16;;;10.77;89.41
60489;BME280;46331;49.252;8.904;2024-03-23T01:55:25;98833.59;;;10.81;89.47
60489;BME280;46331;49.252;8.904;2024-03-23T01:56:06;98845.28;;;10.80;89.64
60489;BME280;46331;49.252;8.904;2024-03-23T01:56:47;98844.50;;;10.84;89.83
60489;BME280;46331;49.252;8.904;2024-03-23T01:57:27;98837.09;;;10.81;89.33
60489;BME280;46331;49.252;8.904;2024-03-23T01:58:08;98841.34;;;10.87;89.27
60489;BME280;46331;49.252;8.904;2024-03-23T01:58:48;98837.34;;;10.90;89.60
60489;BME280;46331;49.252;8.904;2024-03-23T01:59:29;98844.78;;;10.93;89.03
60489;BME280;46331;49.252;8.904;2024-03-23T02:00:10;98834.75;;;11.00;89.44
60489;BME280;46331;49.252;8.904;2024-03-23T02:00:57;98828.66;;;11.10;88.67
60489;BME280;46331;49.252;8.904;2024-03-23T02:01:37;98832.91;;;11.06;88.61
60489;BME280;46331;49.252;8.904;2024-03-23T02:02:18;98828.38;;;11.12;88.70
60489;BME280;46331;49.252;8.904;2024-03-23T02:03:00;98830.00;;;11.13;88.15
60489;BME280;46331;49.252;8.904;2024-03-23T02:03:41;98828.69;;;11.15;87.63
60489;BME280;46331;49.252;8.904;2024-03-23T02:04:21;98826.81;;;11.16;87.41
60489;BME280;46331;49.252;8.904;2024-03-23T02:05:02;98831.06;;;11.17;87.58
60489;BME280;46331;49.252;8.904;2024-03-23T02:05:42;98828.13;;;11.08;86.43
60489;BME280;46331;49.252;8.904;2024-03-23T02:06:25;98828.16;;;11.23;86.73
60489;BME280;46331;49.252;8.904;2024-03-23T02:07:06;98828.41;;;11.17;87.14
60489;BME280;46331;49.252;8.904;2024-03-23T02:07:47;98824.41;;;11.14;87.30
60489;BME280;46331;49.252;8.904;2024-03-23T02:08:28;98819.63;;;11.16;87.56
60489;BME280;46331;49.252;8.904;2024-03-23T02:09:10;98831.31;;;11.15;87.45
60489;BME280;46331;49.252;8.904;2024-03-23T02:09:53;98823.38;;;11.25;87.17
60489;BME280;46331;49.252;8.904;2024-03-23T02:10:34;98828.94;;;11.14;86.35
60489;BME280;46331;49.252;8.904;2024-03-23T02:11:14;98834.25;;;11.14;87.08
60489;BME280;46331;49.252;8.904;2024-03-23T02:11:55;98833.16;;;11.15;87.32
60489;BME280;46331;49.252;8.904;2024-03-23T02:12:36;98836.09;;;11.23;87.30
60489;BME280;46331;49.252;8.904;2024-03-23T02:13:18;98829.47;;;11.21;86.71
60489;BME280;46331;49.252;8.904;2024-03-23T02:13:59;98826.81;;;11.21;86.93
60489;BME280;46331;49.252;8.904;2024-03-23T02:14:39;98835.31;;;11.23;87.64
60489;BME280;46331;49.252;8.904;2024-03-23T02:15:20;98830.81;;;11.23;86.97
60489;BME280;46331;49.252;8.904;2024-03-23T02:16:00;98824.69;;;11.13;86.62
60489;BME280;46331;49.252;8.904;2024-03-23T02:16:41;98824.16;;;11.11;86.98
60489;BME280;46331;49.252;8.904;2024-03-23T02:17:22;98817.78;;;11.12;88.10
60489;BME280;46331;49.252;8.904;2024-03-23T02:18:02;98814.63;;;11.20;87.39
60489;BME280;46331;49.252;8.904;2024-03-23T02:18:43;98814.09;;;11.23;87.94
60489;BME280;46331;49.252;8.904;2024-03-23T02:19:23;98810.91;;;11.26;87.35
60489;BME280;46331;49.252;8.904;2024-03-23T02:20:04;98805.06;;;11.24;87.06
60489;BME280;46331;49.252;8.904;2024-03-23T02:20:46;98805.31;;;11.17;87.08
60489;BME280;46331;49.252;8.904;2024-03-23T02:21:27;98810.09;;;11.15;87.75
60489;BME280;46331;49.252;8.904;2024-03-23T02:22:08;98806.66;;;11.25;87.66
60489;BME280;46331;49.252;8.904;2024-03-23T02:22:53;98801.34;;;11.35;87.35
60489;BME280;46331;49.252;8.904;2024-03-23T02:23:33;98806.94;;;11.34;87.69
60489;BME280;46331;49.252;8.904;2024-03-23T02:24:14;98802.41;;;11.34;87.04
60489;BME280;46331;49.252;8.904;2024-03-23T02:24:54;98808.78;;;11.38;87.03
60489;BME280;46331;49.252;8.904;2024-03-23T02:25:35;98806.13;;;11.43;87.24
60489;BME280;46331;49.252;8.904;2024-03-23T02:26:15;98814.63;;;11.45;86.62
60489;BME280;46331;49.252;8.904;2024-03-23T02:26:57;98826.84;;;11.52;86.72
60489;BME280;46331;49.252;8.904;2024-03-23T02:27:37;98831.63;;;11.55;86.96
60489;BME280;46331;49.252;8.904;2024-03-23T02:28:19;98826.84;;;11.62;86.17
60489;BME280;46331;49.252;8.904;2024-03-23T02:29:00;98817.00;;;11.62;86.09
60489;BME280;46331;49.252;8.904;2024-03-23T02:29:41;98818.88;;;11.62;85.33
60489;BME280;46331;49.252;8.904;2024-03-23T02:30:21;98816.22;;;11.67;85.45
60489;BME280;46331;49.252;8.904;2024-03-23T02:31:02;98817.81;;;11.73;85.13
60489;BME280;46331;49.252;8.904;2024-03-23T02:31:44;98796.84;;;11.77;84.42
60489;BME280;46331;49.252;8.904;2024-03-23T02:32:25;98812.50;;;11.84;84.32
60489;BME280;46331;49.252;8.904;2024-03-23T02:33:05;98805.31;;;11.89;84.31
60489;BME280;46331;49.252;8.904;2024-03-23T02:33:46;98803.19;;;11.96;83.73
60489;BME280;46331;49.252;8.904;2024-03-23T02:34:26;98802.38;;;12.01;82.76
60489;BME280;46331;49.252;8.904;2024-03-23T02:35:07;98799.72;;;12.06;81.84
60489;BME280;46331;49.252;8.904;2024-03-23T02:35:49;98805.00;;;12.16;80.80
60489;BME280;46331;49.252;8.904;2024-03-23T02:36:29;98801.00;;;12.24;80.77
60489;BME280;46331;49.252;8.904;2024-03-23T02:37:11;98797.25;;;12.36;80.76
60489;BME280;46331;49.252;8.904;2024-03-23T02:37:52;98798.28;;;12.45;80.04
60489;BME280;46331;49.252;8.904;2024-03-23T02:38:33;98801.44;;;12.52;80.13
60489;BME280;46331;49.252;8.904;2024-03-23T02:39:13;98794.50;;;12.56;79.69
60489;BME280;46331;49.252;8.904;2024-03-23T02:39:55;98806.44;;;12.64;78.68
60489;BME280;46331;49.252;8.904;2024-03-23T02:40:35;98805.06;;;12.72;78.26
60489;BME280;46331;49.252;8.904;2024-03-23T02:41:17;98793.84;;;12.85;77.83
60489;BME280;46331;49.252;8.904;2024-03-23T02:42:03;98795.09;;;12.98;77.60
60489;BME280;46331;49.252;8.904;2024-03-23T02:42:43;98793.72;;;13.05;76.61
60489;BME280;46331;49.252;8.904;2024-03-23T02:43:24;98796.09;;;13.07;76.50
60489;BME280;46331;49.252;8.904;2024-03-23T02:44:04;98790.44;;;13.14;75.91
60489;BME280;46331;49.252;8.904;2024-03-23T02:44:45;98788.56;;;13.19;75.42
60489;BME280;46331;49.252;8.904;2024-03-23T02:45:25;98797.53;;;13.29;75.31
60489;BME280;46331;49.252;8.904;2024-03-23T02:46:06;98794.06;;;13.33;74.75
60489;BME280;46331;49.252;8.904;2024-03-23T02:46:47;98792.19;;;13.39;74.43
60489;BME280;46331;49.252;8.904;2024-03-23T02:47:27;98792.41;;;13.43;74.29
60489;BME280;46331;49.252;8.904;2024-03-23T02:48:08;98781.25;;;13.40;74.17
60489;BME280;46331;49.252;8.904;2024-03-23T02:48:48;98783.31;;;13.49;73.61
60489;BME280;46331;49.252;8.904;2024-03-23T02:49:29;98781.44;;;13.49;73.48
60489;BME280;46331;49.252;8.904;2024-03-23T02:50:09;98779.00;;;13.53;73.22
60489;BME280;46331;49.252;8.904;2024-03-23T02:50:50;98786.16;;;13.57;73.57
60489;BME280;46331;49.252;8.904;2024-03-23T02:51:31;98787.72;;;13.64;72.97
60489;BME280;46331;49.252;8.904;2024-03-23T02:52:12;98789.59;;;13.63;72.86
60489;BME280;46331;49.252;8.904;2024-03-23T02:52:52;98786.94;;;13.63;72.45
60489;BME280;46331;49.252;8.904;2024-03-23T02:53:33;98788.22;;;13.66;72.54
60489;BME280;46331;49.252;8.904;2024-03-23T02:54:13;98786.94;;;13.63;72.39
60489;BME280;46331;49.252;8.904;2024-03-23T02:54:54;98783.44;;;13.68;72.43
60489;BME280;46331;49.252;8.904;2024-03-23T02:55:35;98786.31;;;13.71;72.49
60489;BME280;46331;49.252;8.904;2024-03-23T02:56:16;98791.41;;;13.68;72.55
60489;BME280;46331;49.252;8.904;2024-03-23T02:56:57;98786.94;;;13.58;72.79
60489;BME280;46331;49.252;8.904;2024-03-23T02:57:37;98789.59;;;13.63;72.80
60489;BME280;46331;49.252;8.904;2024-03-23T02:58:18;98789.06;;;13.61;72.84
60489;BME280;46331;49.252;8.904;2024-03-23T02:58:58;98791.44;;;13.63;72.70
60489;BME280;46331;49.252;8.904;2024-03-23T02:59:39;98797.31;;;13.59;72.44
60489;BME280;46331;49.252;8.904;2024-03-23T03:00:20;98794.38;;;13.61;72.80
60489;BME280;46331;49.252;8.904;2024-03-23T03:01:00;98788.78;;;13.63;72.57
60489;BME280;46331;49.252;8.904;2024-03-23T03:01:41;98790.84;;;13.71;72.55
60489;BME280;46331;49.252;8.904;2024-03-23T03:02:21;98797.47;;;13.73;72.60
60489;BME280;46331;49.252;8.904;2024-03-23T03:03:02;98794.50;;;13.80;72.67
60489;BME280;46331;49.252;8.904;2024-03-23T03:03:43;98797.44;;;13.79;72.40
60489;BME280;46331;49.252;8.904;2024-03-23T03:04:24;98794.22;;;13.82;72.30
60489;BME280;46331;49.252;8.904;2024-03-23T03:05:05;98791.28;;;13.83;72.56
60489;BME280;46331;49.252;8.904;2024-03-23T03:05:46;98794.44;;;13.85;72.58
60489;BME280;46331;49.252;8.904;2024-03-23T03:06:27;98787.00;;;13.82;72.53
60489;BME280;46331;49.252;8.904;2024-03-23T03:07:08;98782.19;;;13.84;72.42
60489;BME280;46331;49.252;8.904;2024-03-23T03:07:49;98782.16;;;13.89;72.06
60489;BME280;46331;49.252;8.904;2024-03-23T03:08:29;98787.69;;;13.93;72.24
60489;BME280;46331;49.252;8.904;2024-03-23T03:09:10;98793.53;;;13.95;72.32
60489;BME280;46331;49.252;8.904;2024-03-23T03:09:51;98782.09;;;13.94;71.89
60489;BME280;46331;49.252;8.904;2024-03-23T03:10:31;98787.88;;;14.02;72.30
60489;BME280;46331;49.252;8.904;2024-03-23T03:11:15;98791.63;;;14.01;71.62
60489;BME280;46331;49.252;8.904;2024-03-23T03:11:55;98793.22;;;14.02;71.89
60489;BME280;46331;49.252;8.904;2024-03-23T03:12:36;98795.47;;;13.89;72.31
60489;BME280;46331;49.252;8.904;2024-03-23T03:13:17;98795.91;;;13.97;72.01
60489;BME280;46331;49.252;8.904;2024-03-23T03:13:58;98797.53;;;13.98;72.09
60489;BME280;46331;49.252;8.904;2024-03-23T03:14:40;98801.22;;;14.02;71.87
60489;BME280;46331;49.252;8.904;2024-03-23T03:15:21;98794.22;;;14.06;71.67
60489;BME280;46331;49.252;8.904;2024-03-23T03:16:01;98794.75;;;14.08;71.73
60489;BME280;46331;49.252;8.904;2024-03-23T03:16:42;98784.88;;;14.08;71.33
60489;BME280;46331;49.252;8.904;2024-03-23T03:17:23;98791.00;;;14.09;71.51
60489;BME280;46331;49.252;8.904;2024-03-23T03:18:03;98791.53;;;14.11;71.63
60489;BME280;46331;49.252;8.904;2024-03-23T03:18:44;98787.31;;;14.05;71.58
60489;BME280;46331;49.252;8.904;2024-03-23T03:19:27;98796.28;;;14.14;71.62
60489;BME280;46331;49.252;8.904;2024-03-23T03:20:08;98780.31;;;14.09;71.73
60489;BME280;46331;49.252;8.904;2024-03-23T03:20:54;98788.78;;;14.16;71.39
60489;BME280;46331;49.252;8.904;2024-03-23T03:21:35;98796.31;;;14.09;71.57
60489;BME280;46331;49.252;8.904;2024-03-23T03:22:15;98799.53;;;14.11;71.19
60489;BME280;46331;49.252;8.904;2024-03-23T03:22:56;98784.09;;;14.08;71.45
60489;BME280;46331;49.252;8.904;2024-03-23T03:23:37;98799.34;;;14.02;71.54
60489;BME280;46331;49.252;8.904;2024-03-23T03:24:18;98795.34;;;14.00;71.85
60489;BME280;46331;49.252;8.904;2024-03-23T03:24:58;98795.06;;;14.01;71.96
60489;BME280;46331;49.252;8.904;2024-03-23T03:25:40;98794.66;;;13.89;71.86
60489;BME280;46331;49.252;8.904;2024-03-23T03:26:20;98794.09;;;13.92;71.92
60489;BME280;46331;49.252;8.904;2024-03-23T03:27:01;98793.53;;;13.95;71.87
60489;BME280;46331;49.252;8.904;2024-03-23T03:27:43;98790.94;;;13.90;72.14
60489;BME280;46331;49.252;8.904;2024-03-23T03:28:24;98795.91;;;13.97;72.01
60489;BME280;46331;49.252;8.904;2024-03-23T03:29:06;98799.41;;;13.97;71.79
60489;BME280;46331;49.252;8.904;2024-03-23T03:29:47;98795.41;;;13.94;71.94
60489;BME280;46331;49.252;8.904;2024-03-23T03:30:27;98788.50;;;13.93;72.17
60489;BME280;46331;49.252;8.904;2024-03-23T03:31:08;98790.94;;;13.90;71.85
60489;BME280;46331;49.252;8.904;2024-03-23T03:31:48;98789.59;;;13.92;72.70
60489;BME280;46331;49.252;8.904;2024-03-23T03:32:30;98786.06;;;13.97;71.87
60489;BME280;46331;49.252;8.904;2024-03-23T03:33:10;98786.34;;;13.95;72.50
60489;BME280;46331;49.252;8.904;2024-03-23T03:33:51;98785.25;;;13.97;71.94
60489;BME280;46331;49.252;8.904;2024-03-23T03:34:32;98782.38;;;13.93;72.19
60489;BME280;46331;49.252;8.904;2024-03-23T03:35:12;98781.59;;;13.92;72.39
60489;BME280;46331;49.252;8.904;2024-03-23T03:35:53;98789.75;;;14.01;72.26
60489;BME280;46331;49.252;8.904;2024-03-23T03:36:34;98775.97;;;13.94;72.32
60489;BME280;46331;49.252;8.904;2024-03-23T03:37:15;98780.22;;;13.95;72.50
60489;BME280;46331;49.252;8.904;2024-03-23T03:37:55;98779.75;;;13.88;72.37
60489;BME280;46331;49.252;8.904;2024-03-23T03:38:36;98791.69;;;13.95;72.56
60489;BME280;46331;49.252;8.904;2024-03-23T03:39:16;98783.13;;;13.99;72.52
60489;BME280;46331;49.252;8.904;2024-03-23T03:39:57;98778.09;;;13.92;72.54
60489;BME280;46331;49.252;8.904;2024-03-23T03:40:37;98789.31;;;13.94;72.46
60489;BME280;46331;49.252;8.904;2024-03-23T03:41:18;98792.25;;;13.92;72.38
60489;BME280;46331;49.252;8.904;2024-03-23T03:42:02;98777.53;;;13.95;72.46
60489;BME280;46331;49.252;8.904;2024-03-23T03:42:50;98784.25;;;13.92;72.52
60489;BME280;46331;49.252;8.904;2024-03-23T03:43:30;98777.25;;;13.97;72.35
60489;BME280;46331;49.252;8.904;2024-03-23T03:44:11;98778.91;;;13.92;72.52
60489;BME280;46331;49.252;8.904;2024-03-23T03:44:52;98772.56;;;13.88;72.58
60489;BME280;46331;49.252;8.904;2024-03-23T03:45:34;98784.28;;;13.87;73.05
60489;BME280;46331;49.252;8.904;2024-03-23T03:46:14;98779.47;;;13.89;72.82
60489;BME280;46331;49.252;8.904;2024-03-23T03:46:55;98780.78;;;13.92;72.91
60489;BME280;46331;49.252;8.904;2024-03-23T03:47:35;98783.13;;;13.99;72.70
60489;BME280;46331;49.252;8.904;2024-03-23T03:48:16;98784.41;;;14.01;72.65
60489;BME280;46331;49.252;8.904;2024-03-23T03:48:56;98781.53;;;13.98;72.58
60489;BME280;46331;49.252;8.904;2024-03-23T03:49:37;98783.91;;;13.99;72.39
60489;BME280;46331;49.252;8.904;2024-03-23T03:50:17;98788.09;;;14.05;72.18
60489;BME280;46331;49.252;8.904;2024-03-23T03:50:58;98776.94;;;14.03;72.33
60489;BME280;46331;49.252;8.904;2024-03-23T03:51:39;98776.31;;;14.11;72.17
60489;BME280;46331;49.252;8.904;2024-03-23T03:52:19;98774.69;;;14.16;72.15
60489;BME280;46331;49.252;8.904;2024-03-23T03:52:59;98780.22;;;14.19;72.04
60489;BME280;46331;49.252;8.904;2024-03-23T03:53:40;98780.28;;;14.14;72.04
60489;BME280;46331;49.252;8.904;2024-03-23T03:54:21;98770.06;;;14.21;71.76
60489;BME280;46331;49.252;8.904;2024-03-23T03:55:02;98767.91;;;14.23;71.34
60489;BME280;46331;49.252;8.904;2024-03-23T03:55:43;98758.31;;;14.22;71.23
60489;BME280;46331;49.252;8.904;2024-03-23T03:56:23;98760.41;;;14.25;71.20
60489;BME280;46331;49.252;8.904;2024-03-23T03:57:04;98768.34;;;14.30;71.08
60489;BME280;46331;49.252;8.904;2024-03-23T03:57:44;98767.00;;;14.33;71.08
60489;BME280;46331;49.252;8.904;2024-03-23T03:58:25;98771.09;;;14.25;70.82
60489;BME280;46331;49.252;8.904;2024-03-23T03:59:05;98766.03;;;14.24;70.48
60489;BME280;46331;49.252;8.904;2024-03-23T03:59:46;98767.84;;;14.28;70.74
60489;BME280;46331;49.252;8.904;2024-03-23T04:00:26;98763.31;;;14.29;71.10
60489;BME280;46331;49.252;8.904;2024-03-23T04:01:07;98765.41;;;14.32;71.09
60489;BME280;46331;49.252;8.904;2024-03-23T04:01:48;98768.06;;;14.32;71.13
60489;BME280;46331;49.252;8.904;2024-03-23T04:02:29;98765.97;;;14.29;70.84
60489;BME280;46331;49.252;8.904;2024-03-23T04:03:09;98766.22;;;14.33;70.71
60489;BME280;46331;49.252;8.904;2024-03-23T04:03:50;98762.44;;;14.34;70.69
60489;BME280;46331;49.252;8.904;2024-03-23T04:04:31;98765.41;;;14.32;70.88
60489;BME280;46331;49.252;8.904;2024-03-23T04:05:11;98762.22;;;14.30;70.52
60489;BME280;46331;49.252;8.904;2024-03-23T04:05:53;98765.66;;;14.36;70.63
60489;BME280;46331;49.252;8.904;2024-03-23T04:06:34;98767.28;;;14.31;70.30
60489;BME280;46331;49.252;8.904;2024-03-23T04:07:15;98760.72;;;14.24;70.35
60489;BME280;46331;49.252;8.904;2024-03-23T04:07:57;98761.28;;;14.21;70.05
60489;BME280;46331;49.252;8.904;2024-03-23T04:08:38;98755.88;;;14.26;70.00
60489;BME280;46331;49.252;8.904;2024-03-23T04:09:18;98760.91;;;14.27;70.13
60489;BME280;46331;49.252;8.904;2024-03-23T04:09:59;98755.44;;;14.19;70.28
60489;BME280;46331;49.252;8.904;2024-03-23T04:10:39;98768.25;;;14.17;70.28
60489;BME280;46331;49.252;8.904;2024-03-23T04:11:20;98762.63;;;14.18;70.21
60489;BME280;46331;49.252;8.904;2024-03-23T04:12:01;98748.72;;;14.21;70.52
60489;BME280;46331;49.252;8.904;2024-03-23T04:12:43;98763.84;;;14.31;70.25
60489;BME280;46331;49.252;8.904;2024-03-23T04:13:24;98757.81;;;14.20;70.13
60489;BME280;46331;49.252;8.904;2024-03-23T04:14:04;98762.06;;;14.21;69.95
60489;BME280;46331;49.252;8.904;2024-03-23T04:14:45;98764.97;;;14.25;70.00
60489;BME280;46331;49.252;8.904;2024-03-23T04:15:25;98769.50;;;14.24;69.79
60489;BME280;46331;49.252;8.904;2024-03-23T04:16:06;98759.19;;;14.18;70.11
60489;BME280;46331;49.252;8.904;2024-03-23T04:16:46;98756.28;;;14.14;70.08
60489;BME280;46331;49.252;8.904;2024-03-23T04:17:27;98764.50;;;14.18;70.10
60489;BME280;46331;49.252;8.904;2024-03-23T04:18:12;98752.50;;;14.20;70.41
60489;BME280;46331;49.252;8.904;2024-03-23T04:18:52;98753.28;;;14.21;70.26
60489;BME280;46331;49.252;8.904;2024-03-23T04:19:33;98748.78;;;14.16;70.46
60489;BME280;46331;49.252;8.904;2024-03-23T04:20:13;98746.41;;;14.15;70.37
60489;BME280;46331;49.252;8.904;2024-03-23T04:20:57;98737.63;;;14.14;70.15
60489;BME280;46331;49.252;8.904;2024-03-23T04:21:37;98737.06;;;14.17;70.11
60489;BME280;46331;49.252;8.904;2024-03-23T04:22:18;98739.78;;;14.12;70.10
60489;BME280;46331;49.252;8.904;2024-03-23T04:22:59;98733.66;;;14.11;70.19
60489;BME280;46331;49.252;8.904;2024-03-23T04:23:39;98735.75;;;14.15;69.96
60489;BME280;46331;49.252;8.904;2024-03-23T04:24:20;98737.66;;;14.09;70.40
60489;BME280;46331;49.252;8.904;2024-03-23T04:25:02;98733.16;;;14.09;70.48
60489;BME280;46331;49.252;8.904;2024-03-23T04:25:47;98748.88;;;14.11;70.69
60489;BME280;46331;49.252;8.904;2024-03-23T04:26:27;98742.22;;;14.08;70.55
60489;BME280;46331;49.252;8.904;2024-03-23T04:27:07;98744.09;;;14.08;70.65
60489;BME280;46331;49.252;8.904;2024-03-23T04:27:48;98750.22;;;14.08;70.30
60489;BME280;46331;49.252;8.904;2024-03-23T04:28:28;98742.28;;;14.03;70.17
60489;BME280;46331;49.252;8.904;2024-03-23T04:29:09;98731.28;;;14.10;70.58
60489;BME280;46331;49.252;8.904;2024-03-23T04:29:50;98732.41;;;14.04;70.60
60489;BME280;46331;49.252;8.904;2024-03-23T04:30:31;98726.03;;;14.00;70.27